sensor_id;sensor_type;location;lat;lon;timestamp;temperature;humidity
76040;SHT30;64736;50.462;4.850;2023-09-08T00:00:14;19.99;84.22
76040;SHT30;64736;50.462;4.850;2023-09-08T00:02:40;19.91;84.56
76040;SHT30;64736;50.462;4.850;2023-09-08T00:05:06;19.93;84.60
76040;SHT30;64736;50.462;4.850;2023-09-08T00:07:32;19.88;84.70
76040;SHT30;64736;50.462;4.850;2023-09-08T00:09:58;19.95;84.53
76040;SHT30;64736;50.462;4.850;2023-09-08T00:12:23;19.71;85.29
76040;SHT30;64736;50.462;4.850;2023-09-08T00:14:49;19.75;85.11
76040;SHT30;64736;50.462;4.850;2023-09-08T00:17:15;19.70;85.45
76040;SHT30;64736;50.462;4.850;2023-09-08T00:19:41;19.53;85.95
76040;SHT30;64736;50.462;4.850;2023-09-08T00:22:06;19.44;86.23
76040;SHT30;64736;50.462;4.850;2023-09-08T00:24:33;19.58;85.66
76040;SHT30;64736;50.462;4.850;2023-09-08T00:26:59;19.50;85.95
76040;SHT30;64736;50.462;4.850;2023-09-08T00:29:24;19.58;85.86
76040;SHT30;64736;50.462;4.850;2023-09-08T00:31:50;19.49;86.05
76040;SHT30;64736;50.462;4.850;2023-09-08T00:34:16;19.50;85.96
76040;SHT30;64736;50.462;4.850;2023-09-08T00:36:41;19.50;85.78
76040;SHT30;64736;50.462;4.850;2023-09-08T00:39:07;19.49;86.00
76040;SHT30;64736;50.462;4.850;2023-09-08T00:41:35;19.34;86.42
76040;SHT30;64736;50.462;4.850;2023-09-08T00:44:01;19.41;86.10
76040;SHT30;64736;50.462;4.850;2023-09-08T00:46:27;19.47;85.99
76040;SHT30;64736;50.462;4.850;2023-09-08T00:48:53;19.46;85.90
76040;SHT30;64736;50.462;4.850;2023-09-08T00:51:21;19.41;86.18
76040;SHT30;64736;50.462;4.850;2023-09-08T00:53:47;19.31;86.36
76040;SHT30;64736;50.462;4.850;2023-09-08T00:56:13;19.24;86.60
76040;SHT30;64736;50.462;4.850;2023-09-08T00:58:39;19.13;86.88
76040;SHT30;64736;50.462;4.850;2023-09-08T01:01:04;19.10;87.27
76040;SHT30;64736;50.462;4.850;2023-09-08T01:03:31;19.19;86.94
76040;SHT30;64736;50.462;4.850;2023-09-08T01:05:58;19.12;87.19
76040;SHT30;64736;50.462;4.850;2023-09-08T01:08:25;19.10;87.42
76040;SHT30;64736;50.462;4.850;2023-09-08T01:10:52;19.14;87.35
76040;SHT30;64736;50.462;4.850;2023-09-08T01:13:17;18.99;87.72
76040;SHT30;64736;50.462;4.850;2023-09-08T01:15:44;19.03;87.44
76040;SHT30;64736;50.462;4.850;2023-09-08T01:18:10;18.98;87.58
76040;SHT30;64736;50.462;4.850;2023-09-08T01:23:21;18.96;87.66
76040;SHT30;64736;50.462;4.850;2023-09-08T01:26:04;18.96;87.87
76040;SHT30;64736;50.462;4.850;2023-09-08T01:28:35;18.89;88.20
76040;SHT30;64736;50.462;4.850;2023-09-08T01:31:03;18.84;88.35
76040;SHT30;64736;50.462;4.850;2023-09-08T01:33:29;18.93;87.74
76040;SHT30;64736;50.462;4.850;2023-09-08T01:35:56;18.93;88.05
76040;SHT30;64736;50.462;4.850;2023-09-08T01:38:22;18.84;88.25
76040;SHT30;64736;50.462;4.850;2023-09-08T01:40:48;18.78;88.38
76040;SHT30;64736;50.462;4.850;2023-09-08T01:43:14;18.75;88.36
76040;SHT30;64736;50.462;4.850;2023-09-08T01:45:40;18.72;88.76
76040;SHT30;64736;50.462;4.850;2023-09-08T01:48:06;18.69;88.78
76040;SHT30;64736;50.462;4.850;2023-09-08T01:50:31;18.81;88.34
76040;SHT30;64736;50.462;4.850;2023-09-08T01:52:57;18.76;88.29
76040;SHT30;64736;50.462;4.850;2023-09-08T01:55:23;18.79;88.15
76040;SHT30;64736;50.462;4.850;2023-09-08T01:57:49;18.79;88.26
76040;SHT30;64736;50.462;4.850;2023-09-08T02:00:15;18.82;88.18
76040;SHT30;64736;50.462;4.850;2023-09-08T02:02:42;18.73;88.36
76040;SHT30;64736;50.462;4.850;2023-09-08T02:05:07;18.55;89.24
76040;SHT30;64736;50.462;4.850;2023-09-08T02:07:34;18.65;88.80
76040;SHT30;64736;50.462;4.850;2023-09-08T02:10:00;18.65;88.79
76040;SHT30;64736;50.462;4.850;2023-09-08T02:12:25;18.65;88.63
76040;SHT30;64736;50.462;4.850;2023-09-08T02:14:51;18.78;88.10
76040;SHT30;64736;50.462;4.850;2023-09-08T02:17:17;18.55;88.99
76040;SHT30;64736;50.462;4.850;2023-09-08T02:19:43;18.66;88.60
76040;SHT30;64736;50.462;4.850;2023-09-08T02:22:09;18.61;88.92
76040;SHT30;64736;50.462;4.850;2023-09-08T02:24:34;18.58;88.80
76040;SHT30;64736;50.462;4.850;2023-09-08T02:27:00;18.57;89.15
76040;SHT30;64736;50.462;4.850;2023-09-08T02:29:26;18.45;89.51
76040;SHT30;64736;50.462;4.850;2023-09-08T02:31:52;18.44;89.53
76040;SHT30;64736;50.462;4.850;2023-09-08T02:34:17;18.45;89.43
76040;SHT30;64736;50.462;4.850;2023-09-08T02:36:43;18.54;89.17
76040;SHT30;64736;50.462;4.850;2023-09-08T02:39:10;18.55;88.90
76040;SHT30;64736;50.462;4.850;2023-09-08T02:41:36;18.57;88.87
76040;SHT30;64736;50.462;4.850;2023-09-08T02:44:02;18.58;88.82
76040;SHT30;64736;50.462;4.850;2023-09-08T02:46:28;18.47;89.04
76040;SHT30;64736;50.462;4.850;2023-09-08T02:48:53;18.28;89.73
76040;SHT30;64736;50.462;4.850;2023-09-08T02:51:19;18.31;89.54
76040;SHT30;64736;50.462;4.850;2023-09-08T02:53:45;18.44;89.23
76040;SHT30;64736;50.462;4.850;2023-09-08T02:56:10;18.33;89.47
76040;SHT30;64736;50.462;4.850;2023-09-08T02:58:36;18.38;89.49
76040;SHT30;64736;50.462;4.850;2023-09-08T03:01:16;18.43;89.26
76040;SHT30;64736;50.462;4.850;2023-09-08T03:03:45;18.45;88.99
76040;SHT30;64736;50.462;4.850;2023-09-08T03:06:11;18.14;89.91
76040;SHT30;64736;50.462;4.850;2023-09-08T03:08:37;18.33;89.36
76040;SHT30;64736;50.462;4.850;2023-09-08T03:11:04;18.27;89.59
76040;SHT30;64736;50.462;4.850;2023-09-08T03:13:34;18.17;90.12
76040;SHT30;64736;50.462;4.850;2023-09-08T03:16:04;18.16;89.77
76040;SHT30;64736;50.462;4.850;2023-09-08T03:18:32;18.13;90.08
76040;SHT30;64736;50.462;4.850;2023-09-08T03:20:58;17.97;90.39
76040;SHT30;64736;50.462;4.850;2023-09-08T03:23:25;18.18;89.88
76040;SHT30;64736;50.462;4.850;2023-09-08T03:25:50;18.26;89.32
76040;SHT30;64736;50.462;4.850;2023-09-08T03:28:16;18.33;88.96
76040;SHT30;64736;50.462;4.850;2023-09-08T03:30:42;18.43;88.57
76040;SHT30;64736;50.462;4.850;2023-09-08T03:33:08;18.34;88.83
76040;SHT30;64736;50.462;4.850;2023-09-08T03:35:33;18.41;88.51
76040;SHT30;64736;50.462;4.850;2023-09-08T03:37:59;18.28;88.81
76040;SHT30;64736;50.462;4.850;2023-09-08T03:40:25;18.37;88.81
76040;SHT30;64736;50.462;4.850;2023-09-08T03:42:51;18.30;88.80
76040;SHT30;64736;50.462;4.850;2023-09-08T03:45:16;18.24;88.82
76040;SHT30;64736;50.462;4.850;2023-09-08T03:47:42;18.28;88.69
76040;SHT30;64736;50.462;4.850;2023-09-08T03:50:08;18.13;89.30
76040;SHT30;64736;50.462;4.850;2023-09-08T03:52:35;18.03;89.51
76040;SHT30;64736;50.462;4.850;2023-09-08T03:55:01;17.93;89.78
76040;SHT30;64736;50.462;4.850;2023-09-08T03:57:27;17.97;89.61
76040;SHT30;64736;50.462;4.850;2023-09-08T03:59:52;17.90;89.86
76040;SHT30;64736;50.462;4.850;2023-09-08T04:02:18;18.07;89.50
76040;SHT30;64736;50.462;4.850;2023-09-08T04:04:44;18.00;89.62
76040;SHT30;64736;50.462;4.850;2023-09-08T04:07:09;18.21;89.29
76040;SHT30;64736;50.462;4.850;2023-09-08T04:09:35;18.26;88.90
76040;SHT30;64736;50.462;4.850;2023-09-08T04:12:01;18.18;88.33
76040;SHT30;64736;50.462;4.850;2023-09-08T04:14:27;18.18;88.85
76040;SHT30;64736;50.462;4.850;2023-09-08T04:16:54;18.41;87.90
76040;SHT30;64736;50.462;4.850;2023-09-08T04:19:19;18.48;87.63
76040;SHT30;64736;50.462;4.850;2023-09-08T04:21:45;18.36;87.99
76040;SHT30;64736;50.462;4.850;2023-09-08T04:24:11;18.38;88.08
76040;SHT30;64736;50.462;4.850;2023-09-08T04:26:37;18.17;88.53
76040;SHT30;64736;50.462;4.850;2023-09-08T04:29:03;18.18;88.65
76040;SHT30;64736;50.462;4.850;2023-09-08T04:31:28;18.30;88.11
76040;SHT30;64736;50.462;4.850;2023-09-08T04:33:54;18.30;88.06
76040;SHT30;64736;50.462;4.850;2023-09-08T04:36:20;18.20;88.31
76040;SHT30;64736;50.462;4.850;2023-09-08T04:38:46;18.33;88.06
76040;SHT30;64736;50.462;4.850;2023-09-08T04:41:11;18.21;88.43
76040;SHT30;64736;50.462;4.850;2023-09-08T04:43:37;18.03;88.88
76040;SHT30;64736;50.462;4.850;2023-09-08T04:46:03;18.28;87.94
76040;SHT30;64736;50.462;4.850;2023-09-08T04:48:29;18.23;88.38
76040;SHT30;64736;50.462;4.850;2023-09-08T04:50:56;18.33;87.91
76040;SHT30;64736;50.462;4.850;2023-09-08T04:53:22;18.33;88.03
76040;SHT30;64736;50.462;4.850;2023-09-08T04:55:48;18.26;88.25
76040;SHT30;64736;50.462;4.850;2023-09-08T04:58:13;18.38;88.07
76040;SHT30;64736;50.462;4.850;2023-09-08T05:00:39;18.33;88.33
76040;SHT30;64736;50.462;4.850;2023-09-08T05:03:05;17.79;89.82
76040;SHT30;64736;50.462;4.850;2023-09-08T05:05:31;18.09;89.29
76040;SHT30;64736;50.462;4.850;2023-09-08T05:07:57;18.07;89.06
76040;SHT30;64736;50.462;4.850;2023-09-08T05:10:23;18.30;88.33
76040;SHT30;64736;50.462;4.850;2023-09-08T05:12:49;18.00;89.14
76040;SHT30;64736;50.462;4.850;2023-09-08T05:15:15;18.00;89.15
76040;SHT30;64736;50.462;4.850;2023-09-08T05:17:42;17.90;89.58
76040;SHT30;64736;50.462;4.850;2023-09-08T05:20:09;17.89;89.71
76040;SHT30;64736;50.462;4.850;2023-09-08T05:22:35;18.09;89.33
76040;SHT30;64736;50.462;4.850;2023-09-08T05:25:02;18.33;88.09
76040;SHT30;64736;50.462;4.850;2023-09-08T05:27:28;18.10;88.94
76040;SHT30;64736;50.462;4.850;2023-09-08T05:29:54;18.11;88.92
76040;SHT30;64736;50.462;4.850;2023-09-08T05:32:20;18.26;88.72
76040;SHT30;64736;50.462;4.850;2023-09-08T05:34:45;18.37;88.21
76040;SHT30;64736;50.462;4.850;2023-09-08T05:37:11;17.99;89.33
76040;SHT30;64736;50.462;4.850;2023-09-08T05:39:37;18.20;89.13
76040;SHT30;64736;50.462;4.850;2023-09-08T05:42:03;18.27;88.43
76040;SHT30;64736;50.462;4.850;2023-09-08T05:44:29;18.20;88.59
76040;SHT30;64736;50.462;4.850;2023-09-08T05:46:55;18.34;88.03
76040;SHT30;64736;50.462;4.850;2023-09-08T05:49:20;17.86;89.86
76040;SHT30;64736;50.462;4.850;2023-09-08T05:51:46;18.13;89.01
76040;SHT30;64736;50.462;4.850;2023-09-08T05:54:12;18.18;88.92
76040;SHT30;64736;50.462;4.850;2023-09-08T05:56:38;18.24;88.73
76040;SHT30;64736;50.462;4.850;2023-09-08T05:59:04;18.11;89.01
76040;SHT30;64736;50.462;4.850;2023-09-08T06:01:30;18.33;88.30
76040;SHT30;64736;50.462;4.850;2023-09-08T06:03:56;18.38;87.88
76040;SHT30;64736;50.462;4.850;2023-09-08T06:06:22;18.36;88.35
76040;SHT30;64736;50.462;4.850;2023-09-08T06:08:48;18.49;87.79
76040;SHT30;64736;50.462;4.850;2023-09-08T06:11:14;18.20;88.47
76040;SHT30;64736;50.462;4.850;2023-09-08T06:13:40;18.21;88.74
76040;SHT30;64736;50.462;4.850;2023-09-08T06:16:06;18.31;88.55
76040;SHT30;64736;50.462;4.850;2023-09-08T06:18:31;18.47;88.09
76040;SHT30;64736;50.462;4.850;2023-09-08T06:20:57;18.43;88.23
76040;SHT30;64736;50.462;4.850;2023-09-08T06:23:23;18.52;87.86
76040;SHT30;64736;50.462;4.850;2023-09-08T06:25:49;18.43;88.05
76040;SHT30;64736;50.462;4.850;2023-09-08T06:28:15;18.48;87.95
76040;SHT30;64736;50.462;4.850;2023-09-08T06:30:41;18.37;88.24
76040;SHT30;64736;50.462;4.850;2023-09-08T06:33:10;18.41;88.54
76040;SHT30;64736;50.462;4.850;2023-09-08T06:35:36;18.51;87.93
76040;SHT30;64736;50.462;4.850;2023-09-08T06:38:02;18.62;87.82
76040;SHT30;64736;50.462;4.850;2023-09-08T06:40:31;18.61;88.15
76040;SHT30;64736;50.462;4.850;2023-09-08T06:42:56;18.64;88.00
76040;SHT30;64736;50.462;4.850;2023-09-08T06:45:22;18.51;88.30
76040;SHT30;64736;50.462;4.850;2023-09-08T06:47:48;18.71;87.68
76040;SHT30;64736;50.462;4.850;2023-09-08T06:50:16;18.88;87.39
76040;SHT30;64736;50.462;4.850;2023-09-08T06:52:42;18.89;87.44
76040;SHT30;64736;50.462;4.850;2023-09-08T06:55:07;18.89;87.47
76040;SHT30;64736;50.462;4.850;2023-09-08T06:57:33;18.95;87.39
76040;SHT30;64736;50.462;4.850;2023-09-08T06:59:58;18.88;87.55
76040;SHT30;64736;50.462;4.850;2023-09-08T07:02:24;18.96;87.28
76040;SHT30;64736;50.462;4.850;2023-09-08T07:04:50;19.02;87.33
76040;SHT30;64736;50.462;4.850;2023-09-08T07:07:17;18.99;87.79
76040;SHT30;64736;50.462;4.850;2023-09-08T07:09:45;18.96;87.81
76040;SHT30;64736;50.462;4.850;2023-09-08T07:12:10;19.13;87.52
76040;SHT30;64736;50.462;4.850;2023-09-08T07:14:37;19.20;87.40
76040;SHT30;64736;50.462;4.850;2023-09-08T07:17:03;19.20;87.50
76040;SHT30;64736;50.462;4.850;2023-09-08T07:19:29;19.22;87.82
76040;SHT30;64736;50.462;4.850;2023-09-08T07:21:54;19.31;87.66
76040;SHT30;64736;50.462;4.850;2023-09-08T07:24:20;19.23;87.98
76040;SHT30;64736;50.462;4.850;2023-09-08T07:26:46;19.38;87.79
76040;SHT30;64736;50.462;4.850;2023-09-08T07:29:12;19.40;87.63
76040;SHT30;64736;50.462;4.850;2023-09-08T07:31:37;19.50;87.51
76040;SHT30;64736;50.462;4.850;2023-09-08T07:34:03;19.49;87.50
76040;SHT30;64736;50.462;4.850;2023-09-08T07:36:29;19.55;87.40
76040;SHT30;64736;50.462;4.850;2023-09-08T07:38:55;19.65;87.19
76040;SHT30;64736;50.462;4.850;2023-09-08T07:41:20;19.68;87.06
76040;SHT30;64736;50.462;4.850;2023-09-08T07:43:46;19.74;86.97
76040;SHT30;64736;50.462;4.850;2023-09-08T07:46:11;19.78;87.19
76040;SHT30;64736;50.462;4.850;2023-09-08T07:48:37;19.89;86.59
76040;SHT30;64736;50.462;4.850;2023-09-08T07:51:02;19.96;86.42
76040;SHT30;64736;50.462;4.850;2023-09-08T07:53:28;20.06;86.27
76040;SHT30;64736;50.462;4.850;2023-09-08T07:55:54;20.10;86.22
76040;SHT30;64736;50.462;4.850;2023-09-08T07:58:21;20.19;86.30
76040;SHT30;64736;50.462;4.850;2023-09-08T08:00:47;20.23;86.19
76040;SHT30;64736;50.462;4.850;2023-09-08T08:03:12;20.26;86.41
76040;SHT30;64736;50.462;4.850;2023-09-08T08:05:38;20.49;85.58
76040;SHT30;64736;50.462;4.850;2023-09-08T08:08:06;20.66;85.31
76040;SHT30;64736;50.462;4.850;2023-09-08T08:10:35;20.70;85.23
76040;SHT30;64736;50.462;4.850;2023-09-08T08:13:01;20.78;84.92
76040;SHT30;64736;50.462;4.850;2023-09-08T08:15:39;20.84;84.95
76040;SHT30;64736;50.462;4.850;2023-09-08T08:18:06;20.95;84.69
76040;SHT30;64736;50.462;4.850;2023-09-08T08:20:33;20.94;84.19
76040;SHT30;64736;50.462;4.850;2023-09-08T08:23:02;21.09;84.18
76040;SHT30;64736;50.462;4.850;2023-09-08T08:25:28;21.21;83.87
76040;SHT30;64736;50.462;4.850;2023-09-08T08:27:54;21.29;83.13
76040;SHT30;64736;50.462;4.850;2023-09-08T08:30:20;21.50;83.06
76040;SHT30;64736;50.462;4.850;2023-09-08T08:32:45;21.60;82.47
76040;SHT30;64736;50.462;4.850;2023-09-08T08:35:11;21.72;82.30
76040;SHT30;64736;50.462;4.850;2023-09-08T08:37:39;21.84;79.99
76040;SHT30;64736;50.462;4.850;2023-09-08T08:40:06;22.01;78.17
76040;SHT30;64736;50.462;4.850;2023-09-08T08:42:32;22.21;77.95
76040;SHT30;64736;50.462;4.850;2023-09-08T08:44:59;22.34;78.99
76040;SHT30;64736;50.462;4.850;2023-09-08T08:47:27;22.47;79.38
76040;SHT30;64736;50.462;4.850;2023-09-08T08:49:56;22.68;76.43
76040;SHT30;64736;50.462;4.850;2023-09-08T08:52:27;22.95;75.88
76040;SHT30;64736;50.462;4.850;2023-09-08T08:54:53;23.20;75.24
76040;SHT30;64736;50.462;4.850;2023-09-08T08:57:20;23.45;74.22
76040;SHT30;64736;50.462;4.850;2023-09-08T08:59:47;23.48;75.37
76040;SHT30;64736;50.462;4.850;2023-09-08T09:02:17;23.57;74.50
76040;SHT30;64736;50.462;4.850;2023-09-08T09:04:44;23.75;73.66
76040;SHT30;64736;50.462;4.850;2023-09-08T09:07:10;23.72;75.00
76040;SHT30;64736;50.462;4.850;2023-09-08T09:09:36;23.89;75.07
76040;SHT30;64736;50.462;4.850;2023-09-08T09:12:02;23.92;74.17
76040;SHT30;64736;50.462;4.850;2023-09-08T09:14:32;24.03;73.97
76040;SHT30;64736;50.462;4.850;2023-09-08T09:16:59;24.24;73.29
76040;SHT30;64736;50.462;4.850;2023-09-08T09:19:25;24.78;71.92
76040;SHT30;64736;50.462;4.850;2023-09-08T09:21:57;25.75;68.73
76040;SHT30;64736;50.462;4.850;2023-09-08T09:24:33;25.88;67.63
76040;SHT30;64736;50.462;4.850;2023-09-08T09:27:00;26.02;67.50
76040;SHT30;64736;50.462;4.850;2023-09-08T09:29:28;26.06;67.32
76040;SHT30;64736;50.462;4.850;2023-09-08T09:32:02;26.18;66.55
76040;SHT30;64736;50.462;4.850;2023-09-08T09:34:29;26.64;65.98
76040;SHT30;64736;50.462;4.850;2023-09-08T09:36:55;28.00;61.75
76040;SHT30;64736;50.462;4.850;2023-09-08T09:39:22;27.62;62.16
76040;SHT30;64736;50.462;4.850;2023-09-08T09:41:49;27.46;62.72
76040;SHT30;64736;50.462;4.850;2023-09-08T09:44:18;28.18;61.25
76040;SHT30;64736;50.462;4.850;2023-09-08T09:46:47;27.11;63.69
76040;SHT30;64736;50.462;4.850;2023-09-08T09:49:15;26.96;63.75
76040;SHT30;64736;50.462;4.850;2023-09-08T09:51:47;28.09;61.66
76040;SHT30;64736;50.462;4.850;2023-09-08T09:54:14;29.13;58.97
76040;SHT30;64736;50.462;4.850;2023-09-08T09:56:41;29.73;57.14
76040;SHT30;64736;50.462;4.850;2023-09-08T09:59:11;28.25;60.50
76040;SHT30;64736;50.462;4.850;2023-09-08T10:01:39;30.04;56.58
76040;SHT30;64736;50.462;4.850;2023-09-08T10:04:05;32.42;50.99
76040;SHT30;64736;50.462;4.850;2023-09-08T10:06:35;34.15;46.12
76040;SHT30;64736;50.462;4.850;2023-09-08T10:09:02;31.66;50.69
76040;SHT30;64736;50.462;4.850;2023-09-08T10:11:38;32.11;51.01
76040;SHT30;64736;50.462;4.850;2023-09-08T10:14:08;32.24;51.85
76040;SHT30;64736;50.462;4.850;2023-09-08T10:16:39;35.19;44.81
76040;SHT30;64736;50.462;4.850;2023-09-08T10:19:09;31.82;50.27
76040;SHT30;64736;50.462;4.850;2023-09-08T10:21:42;36.61;41.46
76040;SHT30;64736;50.462;4.850;2023-09-08T10:24:15;37.40;40.19
76040;SHT30;64736;50.462;4.850;2023-09-08T10:26:44;37.70;39.51
76040;SHT30;64736;50.462;4.850;2023-09-08T10:29:13;37.97;38.67
76040;SHT30;64736;50.462;4.850;2023-09-08T10:31:39;36.06;42.85
76040;SHT30;64736;50.462;4.850;2023-09-08T10:34:05;33.12;47.52
76040;SHT30;64736;50.462;4.850;2023-09-08T10:36:31;33.42;47.28
76040;SHT30;64736;50.462;4.850;2023-09-08T10:39:31;32.38;49.16
76040;SHT30;64736;50.462;4.850;2023-09-08T10:42:20;33.63;47.61
76040;SHT30;64736;50.462;4.850;2023-09-08T10:47:19;36.64;40.76
76040;SHT30;64736;50.462;4.850;2023-09-08T10:49:45;35.76;43.13
76040;SHT30;64736;50.462;4.850;2023-09-08T10:52:12;32.58;48.64
76040;SHT30;64736;50.462;4.850;2023-09-08T10:54:47;31.25;51.62
76040;SHT30;64736;50.462;4.850;2023-09-08T10:57:14;32.76;47.85
76040;SHT30;64736;50.462;4.850;2023-09-08T10:59:45;31.77;49.98
76040;SHT30;64736;50.462;4.850;2023-09-08T11:04:58;38.32;38.04
76040;SHT30;64736;50.462;4.850;2023-09-08T11:07:26;34.50;44.00
76040;SHT30;64736;50.462;4.850;2023-09-08T11:09:52;32.38;47.59
76040;SHT30;64736;50.462;4.850;2023-09-08T11:12:18;33.85;45.59
76040;SHT30;64736;50.462;4.850;2023-09-08T11:14:43;35.14;41.74
76040;SHT30;64736;50.462;4.850;2023-09-08T11:17:09;34.73;39.90
76040;SHT30;64736;50.462;4.850;2023-09-08T11:19:49;39.55;32.38
76040;SHT30;64736;50.462;4.850;2023-09-08T11:22:18;37.36;33.18
76040;SHT30;64736;50.462;4.850;2023-09-08T11:24:45;35.13;35.80
76040;SHT30;64736;50.462;4.850;2023-09-08T11:27:13;40.26;31.09
76040;SHT30;64736;50.462;4.850;2023-09-08T11:29:39;34.60;40.79
76040;SHT30;64736;50.462;4.850;2023-09-08T11:32:09;36.61;37.38
76040;SHT30;64736;50.462;4.850;2023-09-08T11:34:35;36.63;36.82
76040;SHT30;64736;50.462;4.850;2023-09-08T11:37:12;38.83;32.17
76040;SHT30;64736;50.462;4.850;2023-09-08T11:39:42;41.38;25.88
76040;SHT30;64736;50.462;4.850;2023-09-08T11:42:10;37.57;31.23
76040;SHT30;64736;50.462;4.850;2023-09-08T11:44:37;40.85;28.25
76040;SHT30;64736;50.462;4.850;2023-09-08T11:47:04;39.96;28.74
76040;SHT30;64736;50.462;4.850;2023-09-08T11:49:40;36.16;34.52
76040;SHT30;64736;50.462;4.850;2023-09-08T11:52:06;38.38;33.83
76040;SHT30;64736;50.462;4.850;2023-09-08T11:54:34;37.90;34.22
76040;SHT30;64736;50.462;4.850;2023-09-08T11:57:00;35.83;37.36
76040;SHT30;64736;50.462;4.850;2023-09-08T11:59:28;35.75;37.20
76040;SHT30;64736;50.462;4.850;2023-09-08T12:01:53;36.65;36.02
76040;SHT30;64736;50.462;4.850;2023-09-08T12:04:19;34.88;38.77
76040;SHT30;64736;50.462;4.850;2023-09-08T12:06:47;34.90;38.98
76040;SHT30;64736;50.462;4.850;2023-09-08T12:09:13;35.21;37.41
76040;SHT30;64736;50.462;4.850;2023-09-08T12:11:39;35.39;37.43
76040;SHT30;64736;50.462;4.850;2023-09-08T12:14:11;36.34;36.50
76040;SHT30;64736;50.462;4.850;2023-09-08T12:16:37;35.24;39.09
76040;SHT30;64736;50.462;4.850;2023-09-08T12:19:03;37.51;36.04
76040;SHT30;64736;50.462;4.850;2023-09-08T12:21:29;41.28;30.80
76040;SHT30;64736;50.462;4.850;2023-09-08T12:23:58;35.97;37.55
76040;SHT30;64736;50.462;4.850;2023-09-08T12:26:27;35.49;38.64
76040;SHT30;64736;50.462;4.850;2023-09-08T12:28:53;36.55;36.64
76040;SHT30;64736;50.462;4.850;2023-09-08T12:31:19;36.23;36.82
76040;SHT30;64736;50.462;4.850;2023-09-08T12:33:45;34.29;40.41
76040;SHT30;64736;50.462;4.850;2023-09-08T12:36:18;34.66;40.33
76040;SHT30;64736;50.462;4.850;2023-09-08T12:38:51;36.76;36.40
76040;SHT30;64736;50.462;4.850;2023-09-08T12:41:18;38.14;35.59
76040;SHT30;64736;50.462;4.850;2023-09-08T12:43:45;35.37;39.76
76040;SHT30;64736;50.462;4.850;2023-09-08T12:46:11;36.01;38.21
76040;SHT30;64736;50.462;4.850;2023-09-08T12:48:37;36.43;37.78
76040;SHT30;64736;50.462;4.850;2023-09-08T12:51:03;39.04;34.82
76040;SHT30;64736;50.462;4.850;2023-09-08T12:53:33;42.21;30.52
76040;SHT30;64736;50.462;4.850;2023-09-08T12:56:00;38.79;34.12
76040;SHT30;64736;50.462;4.850;2023-09-08T12:58:26;36.31;37.50
76040;SHT30;64736;50.462;4.850;2023-09-08T13:00:54;35.11;39.43
76040;SHT30;64736;50.462;4.850;2023-09-08T13:03:19;37.82;35.31
76040;SHT30;64736;50.462;4.850;2023-09-08T13:05:45;37.12;36.33
76040;SHT30;64736;50.462;4.850;2023-09-08T13:08:11;42.27;30.07
76040;SHT30;64736;50.462;4.850;2023-09-08T13:10:37;40.84;31.53
76040;SHT30;64736;50.462;4.850;2023-09-08T13:13:03;38.87;34.23
76040;SHT30;64736;50.462;4.850;2023-09-08T13:15:29;37.30;36.26
76040;SHT30;64736;50.462;4.850;2023-09-08T13:17:56;37.00;37.21
76040;SHT30;64736;50.462;4.850;2023-09-08T13:20:22;37.53;35.86
76040;SHT30;64736;50.462;4.850;2023-09-08T13:22:48;37.63;36.04
76040;SHT30;64736;50.462;4.850;2023-09-08T13:25:14;41.83;29.98
76040;SHT30;64736;50.462;4.850;2023-09-08T13:27:42;39.21;33.35
76040;SHT30;64736;50.462;4.850;2023-09-08T13:30:09;40.48;32.10
76040;SHT30;64736;50.462;4.850;2023-09-08T13:32:36;39.38;33.67
76040;SHT30;64736;50.462;4.850;2023-09-08T13:35:01;40.63;32.53
76040;SHT30;64736;50.462;4.850;2023-09-08T13:37:28;38.24;34.54
76040;SHT30;64736;50.462;4.850;2023-09-08T13:39:56;37.33;36.30
76040;SHT30;64736;50.462;4.850;2023-09-08T13:42:22;41.59;31.61
76040;SHT30;64736;50.462;4.850;2023-09-08T13:44:48;43.76;29.31
76040;SHT30;64736;50.462;4.850;2023-09-08T13:47:14;42.27;30.05
76040;SHT30;64736;50.462;4.850;2023-09-08T13:49:39;42.32;29.69
76040;SHT30;64736;50.462;4.850;2023-09-08T13:52:05;41.57;31.07
76040;SHT30;64736;50.462;4.850;2023-09-08T13:54:32;39.84;33.01
76040;SHT30;64736;50.462;4.850;2023-09-08T13:57:03;41.09;31.39
76040;SHT30;64736;50.462;4.850;2023-09-08T13:59:29;42.13;30.50
76040;SHT30;64736;50.462;4.850;2023-09-08T14:01:59;41.67;30.94
76040;SHT30;64736;50.462;4.850;2023-09-08T14:04:27;39.10;34.15
76040;SHT30;64736;50.462;4.850;2023-09-08T14:06:53;39.68;34.33
76040;SHT30;64736;50.462;4.850;2023-09-08T14:09:18;40.94;32.57
76040;SHT30;64736;50.462;4.850;2023-09-08T14:11:44;39.73;33.78
76040;SHT30;64736;50.462;4.850;2023-09-08T14:14:10;36.95;37.55
76040;SHT30;64736;50.462;4.850;2023-09-08T14:16:36;39.24;35.00
76040;SHT30;64736;50.462;4.850;2023-09-08T14:19:02;42.34;29.95
76040;SHT30;64736;50.462;4.850;2023-09-08T14:21:27;40.80;32.96
76040;SHT30;64736;50.462;4.850;2023-09-08T14:23:53;39.79;33.21
76040;SHT30;64736;50.462;4.850;2023-09-08T14:26:19;39.37;34.46
76040;SHT30;64736;50.462;4.850;2023-09-08T14:28:47;38.19;35.63
76040;SHT30;64736;50.462;4.850;2023-09-08T14:31:13;36.78;37.31
76040;SHT30;64736;50.462;4.850;2023-09-08T14:33:39;37.08;37.14
76040;SHT30;64736;50.462;4.850;2023-09-08T14:36:04;37.90;36.49
76040;SHT30;64736;50.462;4.850;2023-09-08T14:38:30;40.71;32.41
76040;SHT30;64736;50.462;4.850;2023-09-08T14:40:58;39.28;34.11
76040;SHT30;64736;50.462;4.850;2023-09-08T14:43:24;37.25;36.97
76040;SHT30;64736;50.462;4.850;2023-09-08T14:45:50;36.27;38.44
76040;SHT30;64736;50.462;4.850;2023-09-08T14:48:17;38.92;35.22
76040;SHT30;64736;50.462;4.850;2023-09-08T14:50:43;38.04;36.16
76040;SHT30;64736;50.462;4.850;2023-09-08T14:53:08;37.67;36.60
76040;SHT30;64736;50.462;4.850;2023-09-08T14:55:35;36.30;38.60
76040;SHT30;64736;50.462;4.850;2023-09-08T14:58:00;38.31;35.31
76040;SHT30;64736;50.462;4.850;2023-09-08T15:00:26;37.88;36.00
76040;SHT30;64736;50.462;4.850;2023-09-08T15:02:52;36.99;37.29
76040;SHT30;64736;50.462;4.850;2023-09-08T15:05:18;36.41;38.10
76040;SHT30;64736;50.462;4.850;2023-09-08T15:07:43;36.26;38.52
76040;SHT30;64736;50.462;4.850;2023-09-08T15:10:09;39.21;35.11
76040;SHT30;64736;50.462;4.850;2023-09-08T15:12:35;37.82;35.59
76040;SHT30;64736;50.462;4.850;2023-09-08T15:15:01;37.13;36.99
76040;SHT30;64736;50.462;4.850;2023-09-08T15:17:29;37.21;36.59
76040;SHT30;64736;50.462;4.850;2023-09-08T15:19:54;38.74;35.17
76040;SHT30;64736;50.462;4.850;2023-09-08T15:22:20;41.15;31.36
76040;SHT30;64736;50.462;4.850;2023-09-08T15:24:46;38.90;34.52
76040;SHT30;64736;50.462;4.850;2023-09-08T15:27:14;38.33;36.01
76040;SHT30;64736;50.462;4.850;2023-09-08T15:29:40;39.04;34.43
76040;SHT30;64736;50.462;4.850;2023-09-08T15:32:06;38.02;35.54
76040;SHT30;64736;50.462;4.850;2023-09-08T15:34:32;37.39;35.78